Anaconda, MT

8:56 PM MDT on May 05, 2015 (GMT -0600)
goosetown 2 | | Change Station
CLOSE
Current Station
Personal Weather Station
Location: Anaconda, MT
Elevation: 5240 ft
Nearby Weather Stations

Elev 5240 ft 46.13 °N, 112.94 °W | Updated 1 minute ago

Overcast
Overcast
47.4 °F
Feels Like 47 °F
N
2.0
Wind Variable Wind from West
Gusts 2.0 mph

Today
High -- | Low -- °F
--% Chance of Precip.
Yesterday
High -- | Low -- °F
Precip. -- in
6:13 AM 8:45 PM
Waning Gibbous, 96% visible
Pressure 29.85 in
Visibility 10.0 miles
Clouds Scattered Clouds 2200 ft
Mostly Cloudy 6000 ft
Overcast 8000 ft
Windchill 47 °F
Dew Point 43 °F
Humidity 84%
Rainfall 0.15 in
Snow Depth Not available.
UV 0 out of 12
Pollen 8.50 out of 12
Air Quality Not available.
Flu Activity Local Activity
SPECI KBTM 060202Z AUTO 30006KT 10SM SCT022 BKN060 OVC080 09/07 A2985 RMK AO2 T00940067

More Conditions Fewer Conditions

Pressure 29.85 in
Visibility 10.0 miles
Clouds Scattered Clouds 2200 ft
Mostly Cloudy 6000 ft
Overcast 8000 ft
Windchill 47 °F
Dew Point 43 °F
Humidity 84%
Rainfall 0.15 in
Snow Depth Not available.
UV 0 out of 12
Pollen 8.50 out of 12
Air Quality Not available.
Flu Activity Local Activity
SPECI KBTM 060202Z AUTO 30006KT 10SM SCT022 BKN060 OVC080 09/07 A2985 RMK AO2 T00940067

More Conditions Fewer Conditions

10-Day Weather Forecast

Almanac

Astronomy

May. 05, 2015 Rise Set
Actual Time
Civil Twilight
Nautical Twilight
Astronomical Twilight
Moon
Length of Visible Light
Length of Day
Tomorrow will be .
, % of the Moon is Illuminated

Today's Extremes

State Highs State Lows

Community

WunderPhotos

Upload Photos

1,819,049 photos uploaded!

WunderBlogs® & News

Nearby

Air Quality

  Air Quality AQ Index Pollutant
Not available.

Snow Depth

Station Depth Elevation

Earthquake Activity

City Distance Mag. Time & Date
Minimum magnitude displayed is 2.5.

Coastal Water Temperatures

Place Temperature

Stations

Nearby Weather Stations

Station Location Temp. Windchill Dew Point Humidity Wind Precip. Elev Updated Type